createdAt,value
2019-01-14T00:01:11.891Z,93681.69
2019-01-14T00:03:41.931Z,93676.86
2019-01-14T00:06:11.973Z,93673.38
2019-01-14T00:08:42.012Z,93667.58
2019-01-14T00:11:11.958Z,93657.81
2019-01-14T00:13:41.982Z,93670.21
2019-01-14T00:16:11.992Z,93668.31
2019-01-14T00:18:42.013Z,93651.66
2019-01-14T00:21:12.062Z,93651.26
2019-01-14T00:23:41.880Z,93646.34
2019-01-14T00:26:11.820Z,93642.89
2019-01-14T00:28:41.718Z,93659.45
2019-01-14T00:31:11.801Z,93654.95
2019-01-14T00:33:41.613Z,93656.55
2019-01-14T00:36:17.422Z,93666.91
2019-01-14T00:38:43.376Z,93670.20
2019-01-14T00:41:13.425Z,93668.84
2019-01-14T00:43:43.323Z,93663.87
2019-01-14T00:46:13.280Z,93664.22
2019-01-14T00:48:43.161Z,93674.95
2019-01-14T00:51:13.144Z,93688.72
2019-01-14T00:53:43.167Z,93687.30
2019-01-14T00:56:13.153Z,93694.08
2019-01-14T00:58:43.044Z,93701.45
2019-01-14T01:01:13.046Z,93715.25
2019-01-14T01:03:43.053Z,93720.75
2019-01-14T01:06:13.208Z,93728.81
2019-01-14T01:08:43.258Z,93720.55
2019-01-14T01:11:13.241Z,93732.98
2019-01-14T01:13:43.353Z,93744.70
2019-01-14T01:16:13.338Z,93741.78
2019-01-14T01:18:43.353Z,93757.23
2019-01-14T01:21:13.317Z,93737.14
2019-01-14T01:23:43.317Z,93748.03
2019-01-14T01:26:13.263Z,93737.28
2019-01-14T01:28:43.234Z,93752.30
2019-01-14T01:31:13.273Z,93755.39
2019-01-14T01:33:44.336Z,93765.97
2019-01-14T01:36:14.326Z,93782.80
2019-01-14T01:38:44.235Z,93796.77
2019-01-14T01:41:14.298Z,93780.56
2019-01-14T01:43:44.272Z,93797.16
2019-01-14T01:46:14.325Z,93807.42
2019-01-14T01:48:44.285Z,93808.23
2019-01-14T01:51:14.185Z,93798.50
2019-01-14T01:53:44.219Z,93779.76
2019-01-14T01:56:14.383Z,93812.20
2019-01-14T01:58:44.233Z,93791.84
2019-01-14T02:01:14.175Z,93815.76
2019-01-14T02:03:44.085Z,93824.44
2019-01-14T02:06:14.126Z,93809.41
2019-01-14T02:08:44.113Z,93818.19
2019-01-14T02:11:14.259Z,93802.59
2019-01-14T02:13:44.185Z,93821.50
2019-01-14T02:16:14.141Z,93834.00
2019-01-14T02:18:44.074Z,93843.97
2019-01-14T02:21:14.052Z,93828.17
2019-01-14T02:23:43.982Z,93841.73
2019-01-14T02:26:13.879Z,93846.86
2019-01-14T02:28:44.857Z,93843.58
2019-01-14T02:31:14.835Z,93845.14
2019-01-14T02:33:44.765Z,93851.67
2019-01-14T02:36:14.657Z,93857.20
2019-01-14T02:38:44.688Z,93850.37
2019-01-14T02:41:14.632Z,93852.30
2019-01-14T02:43:44.600Z,93858.48
2019-01-14T02:46:14.582Z,93868.24
2019-01-14T02:48:45.843Z,93866.73
2019-01-14T02:51:15.759Z,93864.66
2019-01-14T02:53:45.817Z,93881.76
2019-01-14T02:56:15.721Z,93878.16
2019-01-14T02:58:45.611Z,93883.70
2019-01-14T03:01:15.738Z,93880.09
2019-01-14T03:03:45.582Z,93877.34
2019-01-14T03:22:18.817Z,93903.66
2019-01-14T03:24:48.685Z,93903.37
2019-01-14T03:27:18.494Z,93914.72
2019-01-14T03:29:48.510Z,93916.58
2019-01-14T03:32:18.323Z,93920.05
2019-01-14T03:34:48.326Z,93925.87
2019-01-14T03:37:18.253Z,93928.13
2019-01-14T03:39:48.142Z,93926.05
2019-01-14T03:42:18.088Z,93914.80
2019-01-14T03:44:47.997Z,93923.47
2019-01-14T03:47:17.898Z,93918.08
2019-01-14T03:49:47.847Z,93922.59
2019-01-14T03:52:17.854Z,93916.92
2019-01-14T03:54:47.756Z,93920.95
2019-01-14T03:57:17.686Z,93923.14
2019-01-14T03:59:47.603Z,93930.52
2019-01-14T04:02:17.623Z,93943.23
2019-01-14T04:04:47.595Z,93944.63
2019-01-14T04:07:17.537Z,93955.38
2019-01-14T04:09:47.363Z,93951.69
2019-01-14T04:12:17.233Z,93954.52
2019-01-14T04:14:47.070Z,93949.06
2019-01-14T04:17:17.087Z,93957.31
2019-01-14T04:19:46.922Z,93954.09
2019-01-14T04:22:16.882Z,93977.41
2019-01-14T04:24:46.812Z,93972.60
2019-01-14T04:27:16.645Z,93964.05
2019-01-14T04:29:46.665Z,93954.62
2019-01-14T04:32:16.499Z,93969.77
2019-01-14T04:34:46.455Z,93977.09
2019-01-14T04:37:21.524Z,93972.67
2019-01-14T04:39:48.004Z,93979.45
2019-01-14T04:42:17.989Z,93987.47
2019-01-14T04:44:48.103Z,93998.60
2019-01-14T04:47:18.081Z,93999.17
2019-01-14T04:49:47.924Z,94001.97
2019-01-14T04:52:17.867Z,94004.11
2019-01-14T04:54:47.748Z,94003.53
2019-01-14T04:57:17.682Z,94016.41
2019-01-14T04:59:47.608Z,94003.47
2019-01-14T05:02:17.636Z,94018.08
2019-01-14T05:04:47.543Z,94017.73
2019-01-14T05:07:17.403Z,94029.13
2019-01-14T05:09:47.331Z,94022.59
2019-01-14T05:12:17.212Z,94040.75
2019-01-14T05:14:47.184Z,94033.41
2019-01-14T05:17:17.065Z,94052.98
2019-01-14T05:19:46.988Z,94052.81
2019-01-14T05:22:16.873Z,94073.09
2019-01-14T05:24:46.746Z,94070.03
2019-01-14T05:27:16.806Z,94065.28
2019-01-14T05:29:46.743Z,94068.63
2019-01-14T05:32:16.752Z,94063.09
2019-01-14T05:34:46.689Z,94063.31
2019-01-14T05:37:16.603Z,94064.45
2019-01-14T05:39:47.784Z,94072.36
2019-01-14T05:42:17.788Z,94074.05
2019-01-14T05:44:47.742Z,94075.92
2019-01-14T05:47:17.733Z,94074.41
2019-01-14T05:49:47.683Z,94080.15
2019-01-14T05:52:17.624Z,94074.41
2019-01-14T05:54:47.619Z,94080.83
2019-01-14T05:57:17.590Z,94083.72
2019-01-14T05:59:47.445Z,94072.30
2019-01-14T06:02:17.668Z,94075.91
2019-01-14T06:04:47.588Z,94090.44
2019-01-14T06:07:17.563Z,94078.84
2019-01-14T06:09:48.392Z,94085.89
2019-01-14T06:12:18.413Z,94089.75
2019-01-14T06:14:48.369Z,94091.52
2019-01-14T06:17:18.310Z,94094.16
2019-01-14T06:19:48.575Z,94100.81
2019-01-14T06:22:18.695Z,94099.48
2019-01-14T06:24:48.711Z,94104.61
2019-01-14T06:27:18.688Z,94105.20
2019-01-14T06:29:48.675Z,94118.93
2019-01-14T06:32:18.580Z,94113.04
2019-01-14T06:34:48.499Z,94114.14
2019-01-14T06:37:18.501Z,94117.33
2019-01-14T06:39:48.528Z,94122.11
2019-01-14T06:42:18.593Z,94134.56
2019-01-14T06:44:48.588Z,94124.95
2019-01-14T06:47:18.642Z,94126.23
2019-01-14T06:49:48.520Z,94137.66
2019-01-14T06:52:18.561Z,94144.77
2019-01-14T06:54:48.476Z,94152.88
2019-01-14T06:57:18.516Z,94148.59
2019-01-14T07:02:39.194Z,94158.97
2019-01-14T07:05:10.323Z,94164.13
2019-01-14T07:07:40.325Z,94171.17
2019-01-14T07:10:13.034Z,94175.86
2019-01-14T07:12:43.110Z,94180.84
2019-01-14T07:15:13.188Z,94189.45
2019-01-14T07:17:43.155Z,94189.61
2019-01-14T07:20:13.353Z,94194.32
2019-01-14T07:22:43.293Z,94194.61
2019-01-14T07:25:13.642Z,94199.80
2019-01-14T07:27:43.616Z,94209.72
2019-01-14T07:30:15.751Z,94197.33
2019-01-14T07:32:45.666Z,94204.48
2019-01-14T07:35:15.922Z,94203.89
2019-01-14T07:37:46.418Z,94223.36
2019-01-14T07:40:17.111Z,94225.34
2019-01-14T07:42:47.159Z,94217.52
2019-01-14T07:45:18.291Z,94223.62
2019-01-14T07:47:48.295Z,94226.69
2019-01-14T07:50:18.916Z,94227.53
2019-01-14T07:52:49.342Z,94232.09
2019-01-14T07:55:19.330Z,94234.84
2019-01-14T07:57:49.297Z,94255.33
2019-01-14T08:00:21.706Z,94245.64
2019-01-14T08:02:52.229Z,94252.38
2019-01-14T08:05:22.350Z,94248.11
2019-01-14T08:07:53.384Z,94256.72
2019-01-14T08:10:23.598Z,94253.84
2019-01-14T08:12:53.615Z,94251.55
2019-01-14T08:15:23.917Z,94261.56
2019-01-14T08:17:53.910Z,94264.23
2019-01-14T08:20:23.836Z,94266.67
2019-01-14T08:22:54.775Z,94278.67
2019-01-14T08:25:24.770Z,94271.00
2019-01-14T08:27:54.770Z,94273.67
2019-01-14T08:30:24.930Z,94280.45
2019-01-14T08:32:54.756Z,94297.70
2019-01-14T08:35:24.806Z,94287.16
2019-01-14T08:37:54.827Z,94295.38
2019-01-14T08:40:24.705Z,94289.83
2019-01-14T08:42:55.100Z,94285.64
2019-01-14T08:45:25.161Z,94299.95
2019-01-14T08:47:56.056Z,94300.22
2019-01-14T08:50:26.061Z,94298.88
2019-01-14T08:52:55.995Z,94299.80
2019-01-14T08:55:26.033Z,94301.79
2019-01-14T08:57:56.066Z,94324.45
2019-01-14T09:00:26.036Z,94315.69
2019-01-14T09:02:55.984Z,94319.90
2019-01-14T09:05:25.975Z,94334.56
2019-01-14T09:07:55.978Z,94338.05
2019-01-14T09:10:26.731Z,94338.16
2019-01-14T09:12:56.791Z,94346.09
2019-01-14T09:15:26.707Z,94351.89
2019-01-14T09:18:02.567Z,94358.42
2019-01-14T09:20:28.433Z,94338.41
2019-01-14T09:22:58.474Z,94343.22
2019-01-14T09:25:28.324Z,94338.11
2019-01-14T09:27:58.341Z,94339.36
2019-01-14T09:30:28.287Z,94348.75
2019-01-14T09:32:58.297Z,94349.31
2019-01-14T09:35:28.339Z,94355.33
2019-01-14T09:37:58.255Z,94365.66
2019-01-14T09:40:28.413Z,94353.44
2019-01-14T09:42:59.265Z,94358.91
2019-01-14T09:45:29.267Z,94362.84
2019-01-14T09:47:59.212Z,94358.34
2019-01-14T09:50:29.166Z,94359.51
2019-01-14T09:52:59.064Z,94363.97
2019-01-14T09:55:29.086Z,94355.89
2019-01-14T09:57:58.977Z,94361.29
2019-01-14T10:00:28.958Z,94363.52
2019-01-14T10:02:58.888Z,94358.04
2019-01-14T10:05:28.789Z,94369.55
2019-01-14T10:07:58.713Z,94354.30
2019-01-14T10:10:28.713Z,94351.44
2019-01-14T10:12:58.714Z,94346.77
2019-01-14T10:15:28.682Z,94348.76
2019-01-14T10:18:01.748Z,94354.23
2019-01-14T10:20:31.705Z,94363.06
2019-01-14T10:23:01.829Z,94356.30
2019-01-14T10:25:32.118Z,94362.27
2019-01-14T10:28:02.153Z,94359.23
2019-01-14T10:30:32.248Z,94348.34
2019-01-14T10:33:02.226Z,94342.23
2019-01-14T10:35:32.250Z,94343.66
2019-01-14T10:38:02.222Z,94354.39
2019-01-14T10:40:32.288Z,94364.70
2019-01-14T10:43:02.329Z,94345.77
2019-01-14T10:45:33.211Z,94330.47
2019-01-14T10:48:03.216Z,94332.09
2019-01-14T10:50:33.430Z,94339.22
2019-01-14T10:53:03.477Z,94332.45
2019-01-14T10:55:33.434Z,94350.18
2019-01-14T10:58:03.439Z,94372.66
2019-01-14T11:00:33.475Z,94345.50
2019-01-14T11:03:04.252Z,94330.78
2019-01-14T11:05:34.268Z,94337.37
2019-01-14T11:08:04.539Z,94337.86
2019-01-14T11:10:34.557Z,94336.06
2019-01-14T11:13:04.779Z,94331.22
2019-01-14T11:15:34.667Z,94330.73
2019-01-14T11:18:05.081Z,94325.86
2019-01-14T11:20:35.092Z,94329.42
2019-01-14T11:23:05.330Z,94328.34
2019-01-14T11:25:35.370Z,94329.56
2019-01-14T11:28:05.734Z,94333.60
2019-01-14T11:30:35.740Z,94331.67
2019-01-14T11:33:05.892Z,94341.73
2019-01-14T11:35:38.336Z,94325.77
2019-01-14T11:38:29.870Z,94329.91
2019-01-14T11:40:59.849Z,94333.01
2019-01-14T11:43:29.889Z,94322.59
2019-01-14T11:45:59.769Z,94330.55
2019-01-14T11:48:29.741Z,94313.30
2019-01-14T11:50:59.672Z,94312.43
2019-01-14T11:53:29.577Z,94314.32
2019-01-14T11:55:59.500Z,94290.45
2019-01-14T11:58:30.383Z,94296.11
2019-01-14T12:01:00.395Z,94318.51
2019-01-14T12:03:30.336Z,94307.14
2019-01-14T12:06:00.263Z,94313.01
2019-01-14T12:08:30.269Z,94297.11
2019-01-14T12:11:00.263Z,94296.14
2019-01-14T12:13:30.145Z,94304.58
2019-01-14T12:16:00.121Z,94298.27
2019-01-14T12:18:30.040Z,94311.16
2019-01-14T12:21:00.027Z,94315.61
2019-01-14T12:23:30.057Z,94296.23
2019-01-14T12:26:00.027Z,94291.63
2019-01-14T12:28:29.932Z,94299.37
2019-01-14T12:30:59.932Z,94300.85
2019-01-14T12:33:29.862Z,94297.41
2019-01-14T12:35:59.918Z,94304.77
2019-01-14T12:38:29.897Z,94303.47
2019-01-14T12:40:59.763Z,94300.23
2019-01-14T12:43:29.774Z,94341.11
2019-01-14T12:45:59.826Z,94300.17
2019-01-14T12:48:29.861Z,94305.16
2019-01-14T12:50:59.803Z,94307.73
2019-01-14T12:53:30.601Z,94310.94
2019-01-14T12:56:00.814Z,94318.09
2019-01-14T12:58:30.786Z,94322.43
2019-01-14T13:01:00.779Z,94305.59
2019-01-14T13:03:30.729Z,94312.73
2019-01-14T13:06:00.709Z,94309.61
2019-01-14T13:08:30.619Z,94308.70
2019-01-14T13:11:00.726Z,94302.23
2019-01-14T13:13:30.700Z,94302.86
2019-01-14T13:16:00.619Z,94310.48
2019-01-14T13:18:30.593Z,94282.42
2019-01-14T13:21:00.537Z,94299.31
2019-01-14T13:23:32.333Z,94310.78
2019-01-14T13:26:02.103Z,94313.52
2019-01-14T13:28:32.047Z,94300.91
2019-01-14T13:31:02.368Z,94305.48
2019-01-14T13:33:32.386Z,94304.97
2019-01-14T13:36:02.487Z,94313.86
2019-01-14T13:38:32.544Z,94315.93
2019-01-14T13:41:02.526Z,94343.76
2019-01-14T13:43:32.586Z,94320.85
2019-01-14T13:46:02.456Z,94327.14
2019-01-14T13:48:32.419Z,94324.97
2019-01-14T13:51:02.448Z,94335.28
2019-01-14T13:53:32.351Z,94351.19
2019-01-14T13:56:02.349Z,94338.98
2019-01-14T13:58:32.278Z,94343.55
2019-01-14T14:01:02.332Z,94349.64
2019-01-14T14:03:32.254Z,94340.41
2019-01-14T14:06:02.321Z,94346.13
2019-01-14T14:08:32.267Z,94375.33
2019-01-14T14:11:02.094Z,94351.41
2019-01-14T14:13:31.946Z,94375.97
2019-01-14T14:16:01.922Z,94396.32
2019-01-14T14:18:31.880Z,94417.52
2019-01-14T14:21:01.880Z,94412.29
2019-01-14T14:23:33.430Z,94444.48
2019-01-14T14:26:03.605Z,94462.58
2019-01-14T14:28:33.552Z,94464.34
2019-01-14T14:31:03.442Z,94483.97
2019-01-14T14:33:33.407Z,94488.47
2019-01-14T14:36:03.417Z,94480.34
2019-01-14T14:38:33.318Z,94478.14
2019-01-14T14:41:03.268Z,94489.41
2019-01-14T14:43:33.246Z,94484.87
2019-01-14T14:46:03.168Z,94480.38
2019-01-14T14:48:33.138Z,94479.06
2019-01-14T14:51:03.097Z,94482.31
2019-01-14T14:53:32.920Z,94481.81
2019-01-14T14:56:02.906Z,94491.40
2019-01-14T14:58:32.908Z,94506.14
2019-01-14T15:01:02.917Z,94518.85
2019-01-14T15:03:32.986Z,94515.62
2019-01-14T15:06:02.924Z,94518.02
2019-01-14T15:08:32.939Z,94517.94
2019-01-14T15:11:03.789Z,94511.53
2019-01-14T15:13:33.649Z,94524.16
2019-01-14T15:16:03.801Z,94517.92
2019-01-14T15:18:33.744Z,94517.19
2019-01-14T15:21:03.667Z,94533.38
2019-01-14T15:23:33.552Z,94536.06
2019-01-14T15:26:03.542Z,94550.02
2019-01-14T15:28:33.492Z,94555.09
2019-01-14T15:31:03.452Z,94567.69
2019-01-14T15:33:33.483Z,94567.98
2019-01-14T15:36:03.353Z,94571.14
2019-01-14T15:38:33.281Z,94575.48
2019-01-14T15:41:03.564Z,94584.20
2019-01-14T15:43:33.609Z,94593.52
2019-01-14T15:46:04.668Z,94587.47
2019-01-14T15:48:34.646Z,94591.42
2019-01-14T15:51:04.186Z,94596.34
2019-01-14T15:53:34.043Z,94613.56
2019-01-14T15:56:04.167Z,94604.45
2019-01-14T15:58:35.219Z,94619.87
2019-01-14T16:01:05.352Z,94623.09
2019-01-14T16:03:35.386Z,94628.35
2019-01-14T16:06:05.520Z,94631.18
2019-01-14T16:08:35.433Z,94655.95
2019-01-14T16:11:05.577Z,94654.58
2019-01-14T16:13:35.577Z,94653.19
2019-01-14T16:16:05.613Z,94650.63
2019-01-14T16:18:35.670Z,94662.73
2019-01-14T16:21:05.692Z,94671.17
2019-01-14T16:23:35.647Z,94677.00
2019-01-14T16:26:05.757Z,94678.52
2019-01-14T16:28:35.838Z,94688.03
2019-01-14T16:31:05.938Z,94701.83
2019-01-14T16:33:35.961Z,94710.77
2019-01-14T16:36:05.874Z,94707.64
2019-01-14T16:38:37.134Z,94720.47
2019-01-14T16:41:07.133Z,94717.82
2019-01-14T16:43:37.046Z,94728.61
2019-01-14T16:46:07.100Z,94743.59
2019-01-14T16:48:37.263Z,94736.26
2019-01-14T16:51:07.335Z,94742.69
2019-01-14T16:53:37.257Z,94758.89
2019-01-14T16:56:07.306Z,94760.64
2019-01-14T16:58:37.208Z,94764.95
2019-01-14T17:01:07.138Z,94783.75
2019-01-14T17:03:37.137Z,94786.73
2019-01-14T17:06:07.147Z,94784.98
2019-01-14T17:08:37.051Z,94787.91
2019-01-14T17:11:07.296Z,94792.82
2019-01-14T17:13:37.396Z,94807.73
2019-01-14T17:16:07.431Z,94808.61
2019-01-14T17:18:37.384Z,94816.34
2019-01-14T17:21:07.352Z,94824.17
2019-01-14T17:23:37.266Z,94840.79
2019-01-14T17:26:08.983Z,94833.02
2019-01-14T17:28:38.901Z,94835.81
2019-01-14T17:31:08.896Z,94838.30
2019-01-14T17:33:38.941Z,94846.44
2019-01-14T17:36:08.878Z,94852.74
2019-01-14T17:38:38.864Z,94856.52
2019-01-14T17:41:08.811Z,94847.09
2019-01-14T17:43:38.774Z,94859.98
2019-01-14T17:46:08.916Z,94857.18
2019-01-14T17:48:39.171Z,94856.92
2019-01-14T17:51:09.252Z,94867.72
2019-01-14T17:53:39.225Z,94883.89
2019-01-14T17:56:09.192Z,94871.84
2019-01-14T17:58:39.176Z,94871.72
2019-01-14T18:01:09.208Z,94869.93
2019-01-14T18:03:39.134Z,94874.20
2019-01-14T18:06:09.247Z,94872.09
2019-01-14T18:08:39.136Z,94881.11
2019-01-14T18:11:09.096Z,94887.99
2019-01-14T18:13:38.954Z,94909.80
2019-01-14T18:16:08.873Z,94908.67
2019-01-14T18:18:38.819Z,94910.25
2019-01-14T18:21:13.876Z,94915.06
2019-01-14T18:23:40.698Z,94919.96
2019-01-14T18:26:10.520Z,94936.61
2019-01-14T18:28:40.458Z,94928.25
2019-01-14T18:31:10.371Z,94937.64
2019-01-14T18:33:40.401Z,94936.67
2019-01-14T18:36:10.370Z,94943.98
2019-01-14T18:38:40.408Z,94943.64
2019-01-14T18:41:11.387Z,94953.75
2019-01-14T18:43:41.443Z,94961.44
2019-01-14T18:46:11.421Z,94969.41
2019-01-14T18:48:41.378Z,94965.80
2019-01-14T18:51:11.492Z,94962.95
2019-01-14T18:53:41.319Z,94968.50
2019-01-14T18:56:11.249Z,94964.30
2019-01-14T18:58:41.151Z,94956.19
2019-01-14T19:01:11.109Z,94945.78
2019-01-14T19:03:41.016Z,94958.62
2019-01-14T19:06:11.041Z,94965.92
2019-01-14T19:08:40.890Z,94966.58
2019-01-14T19:11:10.824Z,94977.22
2019-01-14T19:13:40.797Z,94976.08
2019-01-14T19:16:10.765Z,94976.58
2019-01-14T19:18:40.755Z,94982.20
2019-01-14T19:21:10.700Z,94998.00
2019-01-14T19:23:40.613Z,94989.68
2019-01-14T19:26:10.718Z,94981.15
2019-01-14T19:28:40.751Z,94985.92
2019-01-14T19:31:10.757Z,94985.06
2019-01-14T19:33:40.767Z,94995.18
2019-01-14T19:36:10.753Z,95006.13
2019-01-14T19:38:40.701Z,95005.38
2019-01-14T19:41:10.691Z,94998.36
2019-01-14T19:43:40.636Z,95009.63
2019-01-14T19:46:10.703Z,95007.08
2019-01-14T19:51:16.271Z,95014.40
2019-01-14T19:53:46.181Z,95028.39
2019-01-14T19:56:16.021Z,95020.20
2019-01-14T19:58:46.037Z,95022.89
2019-01-14T20:01:15.984Z,95031.28
2019-01-14T20:03:45.884Z,95038.08
2019-01-14T20:06:15.882Z,95035.69
2019-01-14T20:08:45.775Z,95046.70
2019-01-14T20:11:15.801Z,95034.23
2019-01-14T20:13:45.732Z,95033.39
2019-01-14T20:16:15.656Z,95035.84
2019-01-14T20:18:50.527Z,95042.77
2019-01-14T20:21:24.272Z,95046.11
2019-01-14T20:23:54.161Z,95041.04
2019-01-14T20:26:24.190Z,95036.45
2019-01-14T20:28:54.313Z,95043.36
2019-01-14T20:31:24.432Z,95047.19
2019-01-14T20:33:54.393Z,95048.20
2019-01-14T20:36:24.355Z,95043.59
2019-01-14T20:38:54.342Z,95053.77
2019-01-14T20:41:24.239Z,95063.63
2019-01-14T20:43:55.157Z,95058.22
2019-01-14T20:46:25.065Z,95061.25
2019-01-14T20:48:55.034Z,95065.59
2019-01-14T20:51:24.985Z,95054.42
2019-01-14T20:53:54.863Z,95055.78
2019-01-14T20:56:24.805Z,95048.00
2019-01-14T20:58:54.753Z,95063.59
2019-01-14T21:01:24.630Z,95059.50
2019-01-14T21:03:54.545Z,95061.21
2019-01-14T21:06:24.625Z,95064.13
2019-01-14T21:08:54.716Z,95075.88
2019-01-14T21:11:24.764Z,95073.12
2019-01-14T21:13:54.792Z,95075.05
2019-01-14T21:16:24.663Z,95084.87
2019-01-14T21:18:54.703Z,95088.58
2019-01-14T21:21:24.697Z,95077.52
2019-01-14T21:23:54.568Z,95083.94
2019-01-14T21:26:24.477Z,95078.87
2019-01-14T21:28:54.414Z,95080.03
2019-01-14T21:31:25.876Z,95084.03
2019-01-14T21:33:56.858Z,95098.52
2019-01-14T21:36:26.832Z,95093.54
2019-01-14T21:38:56.684Z,95096.95
2019-01-14T21:41:31.244Z,95107.74
2019-01-14T21:43:58.461Z,95114.86
2019-01-14T21:46:28.352Z,95108.88
2019-01-14T21:48:58.382Z,95119.63
2019-01-14T21:51:28.367Z,95119.19
2019-01-14T21:53:58.237Z,95126.81
2019-01-14T21:56:28.180Z,95131.51
2019-01-14T21:58:58.010Z,95129.74
2019-01-14T22:01:27.966Z,95137.26
2019-01-14T22:03:58.358Z,95148.23
2019-01-14T22:06:28.358Z,95153.41
2019-01-14T22:08:58.186Z,95150.91
2019-01-14T22:11:28.154Z,95152.23
2019-01-14T22:13:58.052Z,95155.33
2019-01-14T22:16:28.069Z,95164.20
2019-01-14T22:18:58.027Z,95164.28
2019-01-14T22:21:27.974Z,95170.09
2019-01-14T22:23:58.006Z,95180.68
2019-01-14T22:26:27.878Z,95182.31
2019-01-14T22:28:57.890Z,95178.62
2019-01-14T22:31:27.727Z,95182.98
2019-01-14T22:33:57.689Z,95177.19
2019-01-14T22:36:27.506Z,95178.78
2019-01-14T22:38:57.556Z,95183.10
2019-01-14T22:41:27.469Z,95187.58
2019-01-14T22:43:57.535Z,95198.44
2019-01-14T22:46:27.392Z,95197.38
2019-01-14T22:48:57.267Z,95198.75
2019-01-14T22:51:27.156Z,95198.80
2019-01-14T22:53:57.648Z,95203.33
2019-01-14T22:56:27.634Z,95207.48
2019-01-14T22:58:57.820Z,95207.69
2019-01-14T23:01:52.261Z,95211.86
2019-01-14T23:04:22.211Z,95217.12
2019-01-14T23:06:52.124Z,95224.09
2019-01-14T23:09:22.166Z,95227.28
2019-01-14T23:11:53.142Z,95229.59
2019-01-14T23:14:25.073Z,95222.98
2019-01-14T23:16:54.984Z,95234.41
2019-01-14T23:19:24.863Z,95233.88
2019-01-14T23:21:54.862Z,95231.22
2019-01-14T23:24:24.759Z,95251.60
2019-01-14T23:26:54.655Z,95231.81
2019-01-14T23:29:24.580Z,95248.71
2019-01-14T23:31:54.600Z,95252.16
2019-01-14T23:34:24.472Z,95259.05
2019-01-14T23:36:54.407Z,95264.62
2019-01-14T23:39:24.641Z,95253.38
2019-01-14T23:42:00.324Z,95266.04
2019-01-14T23:44:26.455Z,95259.52
2019-01-14T23:46:57.507Z,95264.30
2019-01-14T23:49:27.425Z,95267.97
2019-01-14T23:51:57.612Z,95267.35
2019-01-14T23:54:27.544Z,95271.29
2019-01-14T23:56:57.365Z,95259.53
2019-01-14T23:59:27.395Z,95262.58
